Paulina, Oregon
Current Conditions -  °F | °C
As of 9:55 PM on Sunday 19 Oct 2014 (Local Time) from KS39 Reporting Station
Clear Clear  
Wind Chill: 59°   Ceiling: Unl
Heat Index: 59°   Visibility: 10mi
Dew Point: 39°   Wind: 8mph
Humidity: 48%   Direction: 170°S
Pressure: 29.8"   Gusts: NA
Location:  44.13°N, 119.97°W
Report Text: KS39 200455Z 17007KT 10SM CLR 15/04 A2980 RMK AO2 CRANE OPERATIONS 1 MILE NE OF AIRPORT OPERATING AT APP. 150 FT AGL.
Loading
Personal Weather Stations






























Interactive Weather Map
Tropical Storm Tracking
New forecast layout! Learn more

10-Day Weather Forecast

Advertisements
Track Severe Weather on mobile